createdAt,value
2023-09-08T00:02:29.718Z,18.19
2023-09-08T00:04:56.814Z,18.13
2023-09-08T00:07:23.484Z,18.09
2023-09-08T00:09:50.140Z,18.05
2023-09-08T00:12:16.842Z,18.00
2023-09-08T00:14:43.713Z,18.00
2023-09-08T00:17:10.386Z,17.98
2023-09-08T00:19:37.076Z,17.91
2023-09-08T00:22:07.043Z,17.84
2023-09-08T00:24:34.120Z,17.81
2023-09-08T00:27:00.652Z,17.81
2023-09-08T00:29:27.283Z,17.85
2023-09-08T00:31:53.811Z,17.88
2023-09-08T00:34:20.355Z,17.89
2023-09-08T00:36:46.825Z,17.87
2023-09-08T00:39:13.362Z,17.86
2023-09-08T00:41:39.889Z,17.85
2023-09-08T00:44:06.448Z,17.78
2023-09-08T00:46:33.280Z,17.76
2023-09-08T00:48:59.875Z,17.75
2023-09-08T00:51:26.912Z,17.73
2023-09-08T00:53:54.143Z,17.74
2023-09-08T00:56:21.555Z,17.71
2023-09-08T00:58:48.196Z,17.67
2023-09-08T01:01:15.260Z,17.65
2023-09-08T01:03:41.766Z,17.66
2023-09-08T01:06:08.415Z,17.68
2023-09-08T01:08:37.109Z,17.68
2023-09-08T01:11:04.194Z,17.68
2023-09-08T01:13:30.650Z,17.65
2023-09-08T01:15:57.304Z,17.60
2023-09-08T01:18:24.089Z,17.64
2023-09-08T01:21:12.862Z,17.55
2023-09-08T01:24:07.202Z,17.53
2023-09-08T01:26:38.036Z,17.46
2023-09-08T01:29:06.419Z,17.40
2023-09-08T01:31:34.200Z,17.30
2023-09-08T01:34:05.771Z,17.29
2023-09-08T01:36:32.352Z,17.28
2023-09-08T01:38:58.940Z,17.27
2023-09-08T01:41:25.496Z,17.23
2023-09-08T01:43:51.969Z,17.24
2023-09-08T01:46:18.597Z,17.26
2023-09-08T01:48:45.709Z,17.25
2023-09-08T01:51:12.452Z,17.25
2023-09-08T01:53:39.070Z,17.17
2023-09-08T01:56:05.681Z,17.13
2023-09-08T01:58:33.836Z,17.14
2023-09-08T02:01:06.655Z,17.16
2023-09-08T02:03:34.001Z,17.17
2023-09-08T02:06:00.662Z,17.15
2023-09-08T02:08:27.149Z,17.15
2023-09-08T02:10:53.743Z,17.07
2023-09-08T02:13:20.271Z,16.99
2023-09-08T02:15:47.008Z,16.96
2023-09-08T02:18:14.394Z,16.94
2023-09-08T02:20:41.069Z,16.85
2023-09-08T02:23:08.747Z,16.77
2023-09-08T02:25:35.473Z,16.78
2023-09-08T02:28:02.384Z,16.82
2023-09-08T02:30:28.935Z,16.83
2023-09-08T02:32:56.385Z,16.87
2023-09-08T02:35:25.772Z,16.83
2023-09-08T02:37:52.462Z,16.80
2023-09-08T02:40:20.166Z,16.72
2023-09-08T02:42:46.770Z,16.68
2023-09-08T02:45:13.366Z,16.63
2023-09-08T02:47:39.828Z,16.61
2023-09-08T02:50:06.708Z,16.62
2023-09-08T02:52:33.253Z,16.57
2023-09-08T02:54:59.710Z,16.59
2023-09-08T02:57:26.218Z,16.59
2023-09-08T02:59:52.804Z,16.57
2023-09-08T03:02:19.520Z,16.48
2023-09-08T03:04:46.130Z,16.39
2023-09-08T03:07:12.653Z,16.32
2023-09-08T03:09:39.165Z,16.32
2023-09-08T03:12:05.835Z,16.27
2023-09-08T03:14:32.340Z,16.29
2023-09-08T03:16:58.891Z,16.28
2023-09-08T03:19:25.531Z,16.25
2023-09-08T03:21:52.097Z,16.20
2023-09-08T03:24:18.685Z,16.21
2023-09-08T03:26:45.301Z,16.22
2023-09-08T03:29:11.954Z,16.14
2023-09-08T03:31:38.858Z,16.12
2023-09-08T03:34:05.446Z,16.06
2023-09-08T03:36:32.229Z,16.10
2023-09-08T03:38:59.332Z,16.07
2023-09-08T03:41:26.138Z,16.09
2023-09-08T03:43:52.667Z,16.03
2023-09-08T03:46:19.281Z,16.03
2023-09-08T03:48:45.914Z,16.01
2023-09-08T03:51:12.410Z,15.99
2023-09-08T03:53:39.236Z,16.05
2023-09-08T03:56:06.198Z,16.01
2023-09-08T03:58:32.941Z,16.01
2023-09-08T04:00:59.623Z,16.04
2023-09-08T04:03:26.548Z,15.96
2023-09-08T04:05:53.138Z,15.88
2023-09-08T04:08:19.566Z,15.82
2023-09-08T04:10:46.350Z,15.76
2023-09-08T04:13:12.792Z,15.73
2023-09-08T04:15:42.210Z,15.69
2023-09-08T04:18:09.173Z,15.69
2023-09-08T04:20:35.858Z,15.75
2023-09-08T04:23:02.417Z,15.79
2023-09-08T04:25:28.906Z,15.76
2023-09-08T04:27:55.345Z,15.73
2023-09-08T04:30:22.531Z,15.72
2023-09-08T04:32:49.405Z,15.74
2023-09-08T04:35:16.006Z,15.74
2023-09-08T04:37:42.536Z,15.71
2023-09-08T04:40:09.416Z,15.70
2023-09-08T04:42:35.988Z,15.69
2023-09-08T04:45:02.725Z,15.67
2023-09-08T04:47:29.400Z,15.61
2023-09-08T04:49:55.914Z,15.59
2023-09-08T04:52:22.649Z,15.60
2023-09-08T04:54:49.233Z,15.62
2023-09-08T04:57:22.913Z,15.65
2023-09-08T04:59:50.614Z,15.65
2023-09-08T05:02:19.402Z,15.60
2023-09-08T05:04:46.116Z,15.56
2023-09-08T05:07:14.260Z,15.51
2023-09-08T05:09:40.814Z,15.52
2023-09-08T05:12:07.712Z,15.54
2023-09-08T05:14:34.268Z,15.56
2023-09-08T05:17:00.804Z,15.56
2023-09-08T05:19:27.410Z,15.57
2023-09-08T05:21:56.014Z,15.54
2023-09-08T05:24:22.783Z,15.50
2023-09-08T05:26:49.466Z,15.48
2023-09-08T05:29:16.040Z,15.46
2023-09-08T05:31:42.999Z,15.43
2023-09-08T05:34:09.428Z,15.41
2023-09-08T05:36:39.117Z,15.45
2023-09-08T05:39:06.467Z,15.49
2023-09-08T05:41:34.758Z,15.49
2023-09-08T05:44:01.687Z,15.51
2023-09-08T05:46:28.682Z,15.57
2023-09-08T05:48:55.222Z,15.61
2023-09-08T05:51:21.809Z,15.66
2023-09-08T05:53:48.268Z,15.70
2023-09-08T05:56:14.755Z,15.73
2023-09-08T05:58:41.230Z,15.80
2023-09-08T06:01:08.535Z,15.88
2023-09-08T06:03:35.395Z,15.98
2023-09-08T06:06:02.023Z,16.09
2023-09-08T06:08:28.602Z,16.15
2023-09-08T06:10:55.130Z,16.26
2023-09-08T06:13:21.943Z,16.39
2023-09-08T06:15:48.526Z,16.51
2023-09-08T06:18:15.095Z,16.60
2023-09-08T06:20:48.348Z,16.66
2023-09-08T06:23:15.755Z,16.79
2023-09-08T06:25:42.682Z,16.91
2023-09-08T06:28:09.140Z,17.05
2023-09-08T06:30:42.615Z,17.19
2023-09-08T06:33:09.795Z,17.29
2023-09-08T06:35:36.503Z,17.40
2023-09-08T06:38:03.071Z,17.52
2023-09-08T06:40:32.650Z,17.64
2023-09-08T06:43:01.395Z,17.77
2023-09-08T06:45:29.410Z,17.88
2023-09-08T06:47:56.349Z,17.96
2023-09-08T06:50:24.100Z,18.08
2023-09-08T06:52:51.271Z,18.18
2023-09-08T06:55:18.596Z,18.30
2023-09-08T06:57:45.846Z,18.42
2023-09-08T07:00:13.653Z,18.52
2023-09-08T07:02:40.788Z,18.64
2023-09-08T07:05:09.331Z,18.77
2023-09-08T07:07:36.637Z,18.89
2023-09-08T07:10:06.927Z,19.01
2023-09-08T07:12:33.826Z,19.15
2023-09-08T07:15:03.628Z,19.27
2023-09-08T07:17:30.399Z,19.39
2023-09-08T07:19:57.076Z,19.50
2023-09-08T07:22:23.592Z,19.61
2023-09-08T07:24:50.138Z,19.74
2023-09-08T07:27:16.683Z,19.85
2023-09-08T07:29:43.294Z,19.95
2023-09-08T07:32:09.822Z,20.05
2023-09-08T07:34:36.341Z,20.17
2023-09-08T07:37:02.819Z,20.27
2023-09-08T07:39:29.340Z,20.39
2023-09-08T07:41:59.106Z,20.52
2023-09-08T07:44:28.291Z,20.63
2023-09-08T07:46:56.423Z,20.76
2023-09-08T07:49:23.083Z,20.86
2023-09-08T07:51:49.623Z,20.98
2023-09-08T07:54:16.190Z,21.07
2023-09-08T07:56:42.919Z,21.19
2023-09-08T07:59:09.463Z,21.31
2023-09-08T08:01:36.263Z,21.47
2023-09-08T08:04:04.777Z,21.57
2023-09-08T08:06:31.567Z,21.70
2023-09-08T08:08:59.665Z,21.79
2023-09-08T08:11:29.220Z,21.91
2023-09-08T08:13:57.594Z,22.03
2023-09-08T08:16:25.611Z,22.18
2023-09-08T08:18:52.429Z,22.32
2023-09-08T08:21:19.166Z,22.44
2023-09-08T08:23:45.638Z,22.57
2023-09-08T08:26:12.137Z,22.67
2023-09-08T08:28:38.773Z,22.80
2023-09-08T08:31:05.906Z,22.90
2023-09-08T08:33:33.149Z,23.03
2023-09-08T08:35:59.906Z,23.12
2023-09-08T08:38:26.370Z,23.21
2023-09-08T08:40:52.857Z,23.29
2023-09-08T08:43:20.656Z,23.39
2023-09-08T08:45:48.711Z,23.49
2023-09-08T08:48:19.304Z,23.54
2023-09-08T08:50:45.971Z,23.66
2023-09-08T08:53:13.786Z,23.81
2023-09-08T08:55:41.274Z,23.92
2023-09-08T08:58:07.746Z,24.02
2023-09-08T09:00:38.818Z,24.11
2023-09-08T09:03:14.836Z,24.23
2023-09-08T09:05:47.708Z,24.35
2023-09-08T09:08:17.093Z,24.48
2023-09-08T09:10:43.910Z,24.59
2023-09-08T09:13:10.626Z,24.67
2023-09-08T09:15:37.127Z,24.81
2023-09-08T09:18:08.369Z,24.92
2023-09-08T09:20:36.030Z,24.99
2023-09-08T09:23:02.786Z,25.09
2023-09-08T09:25:31.923Z,25.19
2023-09-08T09:28:01.175Z,25.26
2023-09-08T09:30:28.988Z,25.39
2023-09-08T09:33:06.185Z,25.55
2023-09-08T09:35:53.451Z,25.69
2023-09-08T09:38:21.712Z,25.90
2023-09-08T09:40:49.410Z,26.00
2023-09-08T09:43:17.756Z,26.08
2023-09-08T09:45:44.419Z,26.18
2023-09-08T09:48:12.009Z,26.28
2023-09-08T09:50:46.489Z,26.37
2023-09-08T09:53:14.729Z,26.56
2023-09-08T09:55:42.711Z,26.72
2023-09-08T09:58:11.566Z,26.82
2023-09-08T10:00:39.270Z,26.94
2023-09-08T10:03:06.936Z,27.08
2023-09-08T10:05:34.984Z,27.22
2023-09-08T10:08:01.874Z,27.30
2023-09-08T10:10:31.656Z,27.40
2023-09-08T10:13:03.753Z,27.49
2023-09-08T10:15:32.157Z,27.55
2023-09-08T10:18:00.885Z,27.58
2023-09-08T10:20:29.764Z,27.73
2023-09-08T10:23:13.226Z,27.90
2023-09-08T10:25:45.202Z,28.06
2023-09-08T10:28:13.937Z,28.19
2023-09-08T10:30:41.050Z,28.18
2023-09-08T10:33:08.595Z,28.31
2023-09-08T10:35:35.974Z,28.47
2023-09-08T10:38:28.298Z,28.54
2023-09-08T10:41:15.308Z,28.64
2023-09-08T10:43:55.806Z,28.62
2023-09-08T10:46:24.474Z,28.72
2023-09-08T10:48:51.105Z,28.87
2023-09-08T10:51:22.366Z,29.01
2023-09-08T10:53:50.631Z,29.11
2023-09-08T10:56:18.490Z,29.22
2023-09-08T10:58:51.137Z,29.37
2023-09-08T11:01:20.387Z,29.39
2023-09-08T11:03:50.748Z,29.55
2023-09-08T11:06:23.374Z,29.72
2023-09-08T11:08:54.115Z,29.87
2023-09-08T11:11:21.184Z,29.92
2023-09-08T11:13:49.058Z,29.91
2023-09-08T11:16:17.000Z,30.09
2023-09-08T11:18:44.085Z,30.16
2023-09-08T11:21:12.046Z,30.24
2023-09-08T11:23:39.362Z,30.26
2023-09-08T11:26:07.298Z,30.33
2023-09-08T11:28:34.356Z,30.46
2023-09-08T11:31:01.285Z,30.64
2023-09-08T11:33:28.638Z,30.84
2023-09-08T11:35:59.048Z,30.82
2023-09-08T11:38:30.869Z,30.91
2023-09-08T11:40:58.772Z,30.95
2023-09-08T11:43:28.736Z,31.01
2023-09-08T11:45:56.686Z,31.17
2023-09-08T11:48:25.577Z,31.30
2023-09-08T11:50:54.935Z,31.48
2023-09-08T11:53:24.928Z,31.49
2023-09-08T11:55:51.558Z,31.50
2023-09-08T11:58:19.509Z,31.62
2023-09-08T12:00:48.787Z,31.82
2023-09-08T12:03:17.468Z,31.89
2023-09-08T12:05:51.709Z,32.04
2023-09-08T12:08:18.409Z,32.16
2023-09-08T12:10:45.184Z,32.19
2023-09-08T12:13:14.467Z,32.20
2023-09-08T12:15:42.258Z,32.30
2023-09-08T12:18:11.250Z,32.24
2023-09-08T12:20:38.876Z,32.42
2023-09-08T12:23:10.794Z,32.37
2023-09-08T12:25:46.502Z,32.35
2023-09-08T12:28:12.998Z,32.50
2023-09-08T12:30:39.889Z,32.67
2023-09-08T12:33:06.724Z,32.73
2023-09-08T12:35:33.601Z,32.77
2023-09-08T12:38:02.862Z,32.80
2023-09-08T12:40:31.239Z,32.75
2023-09-08T12:43:03.429Z,32.87
2023-09-08T12:45:36.759Z,33.13
2023-09-08T12:48:04.597Z,33.16
2023-09-08T12:50:31.933Z,33.21
2023-09-08T12:52:58.741Z,33.14
2023-09-08T12:55:25.391Z,33.05
2023-09-08T12:57:55.504Z,33.12
2023-09-08T13:00:24.403Z,33.21
2023-09-08T13:02:51.385Z,33.22
2023-09-08T13:05:18.619Z,33.23
2023-09-08T13:07:45.325Z,33.36
2023-09-08T13:10:11.985Z,33.62
2023-09-08T13:12:39.359Z,33.70
2023-09-08T13:15:06.597Z,33.52
2023-09-08T13:17:33.057Z,33.56
2023-09-08T13:19:59.499Z,33.58
2023-09-08T13:22:26.426Z,33.52
2023-09-08T13:24:52.944Z,33.58
2023-09-08T13:27:19.911Z,33.80
2023-09-08T13:29:46.444Z,33.92
2023-09-08T13:32:13.503Z,34.06
2023-09-08T13:34:40.125Z,33.86
2023-09-08T13:37:06.661Z,33.88
2023-09-08T13:39:33.242Z,33.99
2023-09-08T13:42:01.828Z,34.12
2023-09-08T13:44:28.883Z,34.17
2023-09-08T13:46:56.397Z,34.31
2023-09-08T13:49:27.437Z,34.38
2023-09-08T13:51:57.171Z,34.68
2023-09-08T13:54:25.066Z,34.85
2023-09-08T13:57:01.651Z,35.01
2023-09-08T13:59:30.236Z,34.90
2023-09-08T14:02:28.917Z,34.91
2023-09-08T14:04:51.564Z,34.91
2023-09-08T14:09:54.924Z,35.22
2023-09-08T14:12:34.564Z,35.38
2023-09-08T14:15:02.695Z,35.47
2023-09-08T14:17:29.173Z,35.45
2023-09-08T14:19:55.689Z,35.34
2023-09-08T14:22:22.391Z,35.24
2023-09-08T14:24:48.879Z,35.24
2023-09-08T14:27:15.417Z,35.29
2023-09-08T14:29:41.920Z,35.55
2023-09-08T14:32:08.643Z,35.71
2023-09-08T14:34:35.101Z,35.73
2023-09-08T14:37:04.096Z,35.95
2023-09-08T14:39:31.305Z,36.07
2023-09-08T14:41:57.782Z,35.79
2023-09-08T14:44:24.320Z,35.75
2023-09-08T14:46:52.941Z,35.71
2023-09-08T14:49:19.577Z,35.69
2023-09-08T14:51:46.142Z,35.73
2023-09-08T14:54:12.740Z,35.58
2023-09-08T14:56:39.207Z,35.56
2023-09-08T14:59:05.752Z,35.61
2023-09-08T15:01:32.571Z,35.84
2023-09-08T15:03:59.353Z,35.63
2023-09-08T15:06:28.445Z,35.83
2023-09-08T15:08:55.284Z,35.60
2023-09-08T15:11:21.890Z,35.63
2023-09-08T15:13:48.688Z,35.51
2023-09-08T15:16:15.870Z,35.11
2023-09-08T15:18:42.640Z,34.81
2023-09-08T15:21:09.282Z,34.35
2023-09-08T15:23:36.810Z,34.09
2023-09-08T15:26:03.705Z,33.80
2023-09-08T15:28:30.547Z,33.78
2023-09-08T15:30:57.377Z,33.65
2023-09-08T15:33:24.813Z,33.37
2023-09-08T15:35:55.844Z,33.38
2023-09-08T15:38:23.747Z,33.33
2023-09-08T15:41:20.348Z,33.24
2023-09-08T15:43:49.502Z,33.33
2023-09-08T15:46:16.050Z,33.19
2023-09-08T15:48:42.604Z,33.17
2023-09-08T15:51:10.761Z,33.10
2023-09-08T15:53:39.056Z,33.22
2023-09-08T15:56:07.358Z,33.25
2023-09-08T15:58:34.369Z,33.27
2023-09-08T16:01:01.596Z,33.28
2023-09-08T16:03:28.314Z,33.31
2023-09-08T16:05:54.990Z,33.20
2023-09-08T16:08:23.467Z,33.10
2023-09-08T16:10:52.691Z,33.03
2023-09-08T16:13:20.868Z,32.94
2023-09-08T16:15:47.406Z,32.94
2023-09-08T16:18:14.200Z,32.89
2023-09-08T16:20:40.860Z,32.91
2023-09-08T16:23:08.431Z,33.33
2023-09-08T16:25:35.051Z,33.72
2023-09-08T16:28:01.683Z,34.01
2023-09-08T16:30:28.826Z,34.51
2023-09-08T16:32:56.212Z,34.67
2023-09-08T16:35:22.856Z,34.55
2023-09-08T16:37:49.352Z,34.55
2023-09-08T16:40:19.019Z,34.82
2023-09-08T16:42:45.742Z,34.89
2023-09-08T16:45:13.773Z,34.98
2023-09-08T16:47:41.899Z,34.73
2023-09-08T16:50:08.956Z,34.66
2023-09-08T16:52:35.700Z,34.35
2023-09-08T16:55:02.138Z,33.79
2023-09-08T16:57:28.640Z,33.40
2023-09-08T16:59:55.188Z,33.16
2023-09-08T17:02:21.676Z,32.90
2023-09-08T17:04:48.336Z,32.67
2023-09-08T17:07:15.937Z,32.45
2023-09-08T17:09:42.740Z,32.19
2023-09-08T17:12:10.730Z,32.06
2023-09-08T17:14:37.641Z,31.84
2023-09-08T17:17:04.664Z,31.59
2023-09-08T17:19:31.272Z,31.43
2023-09-08T17:21:59.285Z,31.37
2023-09-08T17:24:27.132Z,31.21
2023-09-08T17:26:53.629Z,30.98
2023-09-08T17:29:20.064Z,30.87
2023-09-08T17:31:47.028Z,30.65
2023-09-08T17:34:19.946Z,30.31
2023-09-08T17:36:54.188Z,30.12
2023-09-08T17:39:20.887Z,29.87
2023-09-08T17:41:48.990Z,29.64
2023-09-08T17:44:15.491Z,29.53
2023-09-08T17:46:42.712Z,29.41
2023-09-08T17:49:09.230Z,29.20
2023-09-08T17:51:35.876Z,28.99
2023-09-08T17:54:03.109Z,28.88
2023-09-08T17:56:30.348Z,28.73
2023-09-08T17:58:57.158Z,28.59
2023-09-08T18:01:23.691Z,28.50
2023-09-08T18:03:50.374Z,28.45
2023-09-08T18:06:17.063Z,28.32
2023-09-08T18:08:44.719Z,28.19
2023-09-08T18:11:11.412Z,28.06
2023-09-08T18:13:39.264Z,27.95
2023-09-08T18:16:06.042Z,27.83
2023-09-08T18:18:33.791Z,27.70
2023-09-08T18:21:00.297Z,27.56
2023-09-08T18:23:26.793Z,27.42
2023-09-08T18:25:55.353Z,27.29
2023-09-08T18:28:22.647Z,27.21
2023-09-08T18:30:49.224Z,27.09
2023-09-08T18:33:15.797Z,26.91
2023-09-08T18:35:42.729Z,26.77
2023-09-08T18:38:09.990Z,26.65
2023-09-08T18:40:36.743Z,26.47
2023-09-08T18:43:03.895Z,26.36
2023-09-08T18:45:30.456Z,26.26
2023-09-08T18:47:57.016Z,26.23
2023-09-08T18:50:23.527Z,26.14
2023-09-08T18:52:50.121Z,26.01
2023-09-08T18:55:16.652Z,25.93
2023-09-08T18:57:43.206Z,25.81
2023-09-08T19:00:10.613Z,25.80
2023-09-08T19:02:37.312Z,25.74
2023-09-08T19:05:05.625Z,25.56
2023-09-08T19:07:32.600Z,25.46
2023-09-08T19:09:59.206Z,25.44
2023-09-08T19:12:25.924Z,25.43
2023-09-08T19:14:52.556Z,25.38
2023-09-08T19:17:19.038Z,25.31
2023-09-08T19:19:45.552Z,25.22
2023-09-08T19:22:12.142Z,25.11
2023-09-08T19:24:38.668Z,24.98
2023-09-08T19:27:05.293Z,24.92
2023-09-08T19:29:31.798Z,24.91
2023-09-08T19:31:59.439Z,24.83
2023-09-08T19:34:25.888Z,24.68
2023-09-08T19:36:52.491Z,24.66
2023-09-08T19:39:19.109Z,24.66
2023-09-08T19:41:45.749Z,24.61
2023-09-08T19:44:12.303Z,24.55
2023-09-08T19:46:38.820Z,24.51
2023-09-08T19:49:08.196Z,24.47
2023-09-08T19:51:34.695Z,24.36
2023-09-08T19:54:01.670Z,24.18
2023-09-08T19:56:29.708Z,24.18
2023-09-08T19:58:56.128Z,24.16
2023-09-08T20:01:25.590Z,24.09
2023-09-08T20:03:52.099Z,24.01
2023-09-08T20:06:18.652Z,23.98
2023-09-08T20:08:45.225Z,23.97
2023-09-08T20:11:11.706Z,23.93
2023-09-08T20:13:38.399Z,23.83
2023-09-08T20:16:07.978Z,23.68
2023-09-08T20:18:36.076Z,23.70
2023-09-08T20:21:05.696Z,23.73
2023-09-08T20:23:33.710Z,23.72
2023-09-08T20:26:00.636Z,23.64
2023-09-08T20:28:27.159Z,23.66
2023-09-08T20:31:12.988Z,23.57
2023-09-08T20:33:41.096Z,23.55
2023-09-08T20:36:07.668Z,23.52
2023-09-08T20:38:34.372Z,23.42
2023-09-08T20:41:01.304Z,23.31
2023-09-08T20:43:27.956Z,23.27
2023-09-08T20:46:03.784Z,23.27
2023-09-08T20:48:35.456Z,23.21
2023-09-08T20:51:07.792Z,23.18
2023-09-08T20:53:39.412Z,23.17
2023-09-08T20:56:12.656Z,23.15
2023-09-08T20:58:40.601Z,23.06
2023-09-08T21:01:07.641Z,22.94
2023-09-08T21:03:36.167Z,22.82
2023-09-08T21:06:03.633Z,22.76
2023-09-08T21:08:33.314Z,22.73
2023-09-08T21:10:59.943Z,22.71
2023-09-08T21:13:27.017Z,22.64
2023-09-08T21:15:53.810Z,22.54
2023-09-08T21:18:20.649Z,22.49
2023-09-08T21:23:17.881Z,22.30
2023-09-08T21:25:44.465Z,22.24
2023-09-08T21:28:10.991Z,22.22
2023-09-08T21:30:37.543Z,22.23
2023-09-08T21:33:04.392Z,22.23
2023-09-08T21:35:32.053Z,22.21
2023-09-08T21:37:58.728Z,22.14
2023-09-08T21:40:25.398Z,22.00
2023-09-08T21:42:52.084Z,21.97
2023-09-08T21:45:18.858Z,21.99
2023-09-08T21:47:48.084Z,21.94
2023-09-08T21:50:15.843Z,21.93
2023-09-08T21:52:42.539Z,21.89
2023-09-08T21:55:10.728Z,21.80
2023-09-08T21:57:37.394Z,21.68
2023-09-08T22:00:06.669Z,21.62
2023-09-08T22:02:33.511Z,21.61
2023-09-08T22:05:00.425Z,21.56
2023-09-08T22:07:27.027Z,21.49
2023-09-08T22:09:54.100Z,21.46
2023-09-08T22:12:20.851Z,21.42
2023-09-08T22:14:49.966Z,21.39
2023-09-08T22:17:16.880Z,21.34
2023-09-08T22:19:43.693Z,21.37
2023-09-08T22:22:10.205Z,21.39
2023-09-08T22:24:36.666Z,21.37
2023-09-08T22:27:05.049Z,21.37
2023-09-08T22:29:32.059Z,21.26
2023-09-08T22:31:58.851Z,21.19
2023-09-08T22:34:26.537Z,21.19
2023-09-08T22:36:53.205Z,21.12
2023-09-08T22:39:19.670Z,21.12
2023-09-08T22:41:46.154Z,21.06
2023-09-08T22:44:12.737Z,20.97
2023-09-08T22:46:39.261Z,20.87
2023-09-08T22:49:05.795Z,20.78
2023-09-08T22:51:32.452Z,20.69
2023-09-08T22:53:58.914Z,20.67
2023-09-08T22:56:25.549Z,20.72
2023-09-08T22:58:52.103Z,20.71
2023-09-08T23:01:18.933Z,20.69
2023-09-08T23:03:45.735Z,20.62
2023-09-08T23:06:14.827Z,20.62
2023-09-08T23:08:41.395Z,20.54
2023-09-08T23:11:07.986Z,20.54
2023-09-08T23:13:37.862Z,20.58
2023-09-08T23:16:04.936Z,20.56
2023-09-08T23:18:31.800Z,20.52
2023-09-08T23:20:58.289Z,20.48
2023-09-08T23:23:24.920Z,20.44
2023-09-08T23:25:51.523Z,20.38
2023-09-08T23:28:18.115Z,20.36
2023-09-08T23:30:44.654Z,20.30
2023-09-08T23:33:11.620Z,20.26
2023-09-08T23:35:38.240Z,20.26
2023-09-08T23:38:04.973Z,20.18
2023-09-08T23:40:31.508Z,20.09
2023-09-08T23:42:58.253Z,20.07
2023-09-08T23:45:25.356Z,20.04
2023-09-08T23:47:51.869Z,20.00
2023-09-08T23:50:18.419Z,19.99
2023-09-08T23:52:44.994Z,20.00
2023-09-08T23:55:12.024Z,19.91
2023-09-08T23:57:38.564Z,19.90
